NORTHEAST SUFFOLK  -  Winter Weather Advisory Winter Weather Advisory        NORTHERN NASSAU  -  Winter Weather Advisory Winter Weather Advisory        NORTHWEST SUFFOLK  -  Winter Weather Advisory Winter Weather Advisory        SOUTHEAST SUFFOLK  -  Winter Weather Advisory Winter Weather Advisory        SOUTHERN NASSAU  -  Winter Weather Advisory Winter Weather Advisory        SOUTHWEST SUFFOLK  -  Winter Weather Advisory Winter Weather Advisory      

Active alerts

Northern Nassau
  Details for Northern Nassau Winter Weather Advisory
Southern Nassau
  Details for Southern Nassau Winter Weather Advisory
Northwest Suffolk
  Details for Northwest Suffolk Winter Weather Advisory
Southwest Suffolk
  Details for Southwest Suffolk Winter Weather Advisory
Northeast Suffolk
  Details for Northeast Suffolk Winter Weather Advisory
Southeast Suffolk
  Details for Southeast Suffolk Winter Weather Advisory


WXM80 ListenWXM80 Stop

You find our weather info also at:

UK Metoffice

WeatherCloud

Weather Underground

Northeastern Weather Network

AWEKAS

Citizen Weather Observer Program (CWOP)

HAMweather, WeatherForYou, PWS Weather


Weather Underground History page Text

Daily Summary for June 24, 2017 Units:  Metric    English   Both
« Previous Day
Next Day »
Daily Weekly Monthly Yearly Custom
  High: Low: Average:
Temperature: 31.4 °C 22.1 °C 25.9 °C
Dew Point: 25.3 °C 15.1 °C 20 °C
Humidity: 97 % 41 % 73 %
Wind Speed: 14.2 km/h 0 km/h 3.5 km/h
Wind Gust: 25.7 km/h - -
Wind:- - WSW
Pressure: 1010.4 hPa 999.5 hPa -
Precipitation: 29.72 mm    
Historical Graphs
 
 
Tabular Data for June 24, 2017
Time Temperature Dew Point Pressure Wind Wind Speed Wind Gust Humidity Rainfall Rate (Hourly)
00:02 25.4 °C 22.7 °C 1001.2 hPa SSW 6.4 km/h 11.3 km/h 85 % 0 mm
00:07 25.4 °C 22.7 °C 1001.6 hPa SW 1.1 km/h 5.6 km/h 85 % 0 mm
00:12 25.3 °C 22.6 °C 1001.2 hPa SW 2.3 km/h 5.6 km/h 85 % 0 mm
00:17 25.3 °C 22.6 °C 1001.2 hPa WSW 3.5 km/h 7.4 km/h 85 % 0 mm
00:22 25.3 °C 22.8 °C 1001.2 hPa SW 2.6 km/h 5.6 km/h 86 % 0 mm
00:27 25.2 °C 22.7 °C 1001.6 hPa West 2.9 km/h 5.6 km/h 86 % 0 mm
00:32 25.1 °C 22.6 °C 1001.2 hPa SSE 1.9 km/h 5.6 km/h 86 % 0 mm
00:37 25 °C 22.5 °C 1001.2 hPa SSW 2.4 km/h 8 km/h 86 % 0 mm
00:42 24.9 °C 22.4 °C 1001.2 hPa SSW 4.2 km/h 6.4 km/h 86 % 0 mm
00:47 24.8 °C 22.5 °C 1001.2 hPa SW 0.8 km/h 3.7 km/h 87 % 0 mm
00:52 24.8 °C 22.4 °C 1001.2 hPa SW 4.7 km/h 14.8 km/h 87 % 0 mm
00:57 24.7 °C 22.3 °C 1001.2 hPa West 2.6 km/h 5.6 km/h 87 % 0 mm
01:02 24.6 °C 22.5 °C 1001.2 hPa SSW 2.4 km/h 6.4 km/h 88 % 0 mm
01:07 24.6 °C 22.5 °C 1001.2 hPa SSW 3.4 km/h 11.1 km/h 88 % 0 mm
01:12 24.6 °C 22.4 °C 1001.2 hPa SSW 1.3 km/h 4.8 km/h 88 % 0 mm
01:17 24.5 °C 22.4 °C 1001.2 hPa NW 1.4 km/h 7.4 km/h 88 % 0 mm
01:22 24.5 °C 22.4 °C 1001.2 hPa SW 0.3 km/h 1.9 km/h 88 % 0 mm
01:27 24.4 °C 22.3 °C 1001.2 hPa SSE 0.3 km/h 1.9 km/h 88 % 0 mm
01:32 24.4 °C 22.3 °C 1000.9 hPa SSW 1.8 km/h 3.2 km/h 88 % 0 mm
01:37 24.4 °C 22.3 °C 1000.9 hPa SW 4.2 km/h 7.4 km/h 88 % 0 mm
01:43 24.4 °C 22.3 °C 1000.9 hPa SSW 3.9 km/h 8 km/h 88 % 0 mm
01:48 24.4 °C 22.4 °C 1000.9 hPa SW 3.2 km/h 9.3 km/h 89 % 0 mm
01:53 24.4 °C 22.4 °C 1000.9 hPa SW 1.4 km/h 5.6 km/h 89 % 0 mm
01:58 24.3 °C 22.4 °C 1000.9 hPa South 6.1 km/h 7.4 km/h 89 % 0 mm
02:03 24.3 °C 22.4 °C 1000.9 hPa SW 4.5 km/h 11.1 km/h 89 % 0 mm
02:08 24.3 °C 22.6 °C 1000.9 hPa SSW 1.3 km/h 5.6 km/h 90 % 0 mm
02:13 24.2 °C 22.5 °C 1001.2 hPa West 2.1 km/h 5.6 km/h 90 % 0 mm
02:18 24.2 °C 22.4 °C 1001.2 hPa SW 5.5 km/h 14.8 km/h 90 % 0 mm
02:23 24.1 °C 22.3 °C 1001.2 hPa SSW 6 km/h 13 km/h 90 % 0 mm
02:28 24.1 °C 22.5 °C 1000.9 hPa SW 5.1 km/h 20.4 km/h 91 % 0 mm
02:33 23.9 °C 22.4 °C 1001.2 hPa SW 5.6 km/h 12.9 km/h 91 % 0 mm
02:38 23.9 °C 22.4 °C 1001.2 hPa SW 7.6 km/h 14.8 km/h 91 % 0 mm
02:43 23.8 °C 22.3 °C 1000.9 hPa WSW 5.6 km/h 14.8 km/h 91 % 0 mm
02:48 23.8 °C 22.2 °C 1000.9 hPa WSW 2.3 km/h 9.7 km/h 91 % 0 mm
02:53 23.8 °C 22.2 °C 1000.9 hPa West 5.5 km/h 16.7 km/h 91 % 0 mm
02:58 23.8 °C 22.2 °C 1000.9 hPa SW 8.9 km/h 14.8 km/h 91 % 0 mm
03:03 23.8 °C 22.2 °C 1000.9 hPa WSW 3.7 km/h 5.6 km/h 91 % 0 mm
03:08 23.8 °C 22.2 °C 1000.9 hPa SW 4.2 km/h 11.1 km/h 91 % 0 mm
03:13 23.8 °C 22.2 °C 1001.2 hPa WSW 4.8 km/h 14.5 km/h 91 % 0 mm
03:18 23.8 °C 22.3 °C 1000.9 hPa SW 2.6 km/h 7.4 km/h 91 % 0 mm
03:23 23.8 °C 22.3 °C 1000.9 hPa SW 5.5 km/h 13 km/h 91 % 0 mm
03:28 23.9 °C 22.3 °C 1000.9 hPa WSW 4.5 km/h 11.3 km/h 91 % 0 mm
03:33 23.9 °C 22.3 °C 1000.9 hPa SSE 10.3 km/h 14.8 km/h 91 % 0 mm
03:38 23.9 °C 22.2 °C 1000.9 hPa West 7.6 km/h 13 km/h 90 % 0 mm
03:43 23.9 °C 22.2 °C 1000.9 hPa WSW 7.6 km/h 13 km/h 90 % 0 mm
03:48 23.9 °C 22.2 °C 1000.9 hPa WSW 4.3 km/h 11.3 km/h 90 % 0 mm
03:53 23.9 °C 22 °C 1000.9 hPa WSW 6.3 km/h 11.3 km/h 89 % 0 mm
03:58 23.9 °C 22 °C 1000.6 hPa SW 3.1 km/h 6.4 km/h 89 % 0 mm
04:03 23.9 °C 22 °C 1000.6 hPa West 2.7 km/h 13 km/h 89 % 0 mm
04:08 23.9 °C 21.9 °C 1000.9 hPa SW 2.6 km/h 5.6 km/h 89 % 0 mm
04:13 23.9 °C 21.9 °C 1000.6 hPa WSW 0.3 km/h 3.7 km/h 89 % 0 mm
04:18 23.9 °C 21.8 °C 1000.6 hPa WSW 6.4 km/h 8 km/h 88 % 0 mm
04:24 23.8 °C 21.7 °C 1000.2 hPa WSW 0.3 km/h 1.9 km/h 88 % 0 mm
04:28 23.8 °C 21.7 °C 1000.2 hPa WSW 0.2 km/h 4.8 km/h 88 % 0 mm
04:33 23.8 °C 21.7 °C 1000.2 hPa Calm   1.9 km/h 88 % 0 mm
04:38 23.8 °C 21.7 °C 1000.2 hPa Calm   1.9 km/h 88 % 0 mm
04:43 23.8 °C 21.7 °C 1000.2 hPa Calm     88 % 0 mm
04:49 23.8 °C 21.7 °C 1000.2 hPa Calm   1.9 km/h 88 % 0 mm
04:54 23.8 °C 21.8 °C 1000.2 hPa Calm   5.6 km/h 89 % 0 mm
04:59 23.8 °C 21.8 °C 999.9 hPa Calm     89 % 0 mm
05:04 23.8 °C 21.8 °C 1000.2 hPa Calm   5.6 km/h 89 % 0 mm
05:09 23.7 °C 22 °C 1000.2 hPa Calm   1.9 km/h 90 % 0 mm
05:14 23.7 °C 22 °C 1000.6 hPa Calm     90 % 0 mm
05:19 23.8 °C 22.1 °C 1000.6 hPa WSW 1 km/h 5.6 km/h 90 % 0 mm
05:24 23.7 °C 22 °C 1000.9 hPa West 3.4 km/h 5.6 km/h 90 % 0 mm
05:29 23.7 °C 22 °C 1000.9 hPa WSW 0.6 km/h 3.7 km/h 90 % 0 mm
05:34 23.7 °C 22.2 °C 1000.9 hPa SSE 0.2 km/h 1.9 km/h 91 % 0 mm
05:39 23.7 °C 22.1 °C 1000.9 hPa SW 0.6 km/h 5.6 km/h 91 % 0 mm
05:44 23.7 °C 22.1 °C 1000.6 hPa Calm     91 % 0 mm
05:49 23.7 °C 22.1 °C 1000.6 hPa Calm     91 % 0 mm
05:54 23.6 °C 22.1 °C 1000.6 hPa Calm     91 % 0 mm
05:59 23.6 °C 22.1 °C 1000.2 hPa Calm   1.9 km/h 91 % 0 mm
06:04 23.6 °C 22 °C 1000.6 hPa Calm     91 % 0 mm
06:09 23.6 °C 22 °C 1000.6 hPa Calm     91 % 0 mm
06:14 23.6 °C 22 °C 1000.2 hPa Calm     91 % 0 mm
06:19 23.6 °C 22 °C 1000.2 hPa SE 3.2 km/h 5.6 km/h 91 % 0 mm
06:24 23.4 °C 21.9 °C 1000.2 hPa SE 1.9 km/h 9.3 km/h 91 % 0.25 mm
06:29 23.4 °C 21.9 °C 999.9 hPa Calm   1.6 km/h 91 % 0.25 mm
06:34 23.4 °C 21.8 °C 1000.2 hPa Calm     91 % 0.51 mm
06:39 23.3 °C 21.8 °C 1000.6 hPa East 0.2 km/h 1.9 km/h 91 % 1.02 mm
06:45 23.3 °C 21.8 °C 1000.2 hPa Calm   1.9 km/h 91 % 1.52 mm
06:50 23.2 °C 21.7 °C 1000.2 hPa Calm   1.9 km/h 91 % 2.54 mm
06:55 23.2 °C 21.8 °C 999.9 hPa Calm     92 % 3.3 mm
07:00 23.1 °C 21.7 °C 1000.2 hPa Calm     92 % 4.06 mm
07:05 23.1 °C 21.7 °C 999.9 hPa Calm     92 % 4.83 mm
07:10 23 °C 21.6 °C 999.5 hPa Calm     92 % 5.84 mm
07:15 22.9 °C 21.7 °C 1000.2 hPa SE 0.6 km/h 5.6 km/h 93 % 6.6 mm
07:20 22.8 °C 21.6 °C 1000.6 hPa Calm   1.9 km/h 93 % 7.62 mm
07:25 22.7 °C 21.6 °C 1000.2 hPa SE 0.2 km/h 1.9 km/h 93 % 8.13 mm
07:30 22.7 °C 21.5 °C 1000.2 hPa Calm     93 % 9.4 mm
07:35 22.6 °C 21.4 °C 999.9 hPa Calm     93 % 9.91 mm
07:40 22.6 °C 21.4 °C 999.9 hPa Calm     93 % 10.67 mm
07:41 22.6 °C 21.4 °C 999.5 hPa Calm     93 % 10.41 mm
07:46 22.6 °C 21.6 °C 999.9 hPa Calm     94 % 10.92 mm
07:51 22.5 °C 21.5 °C 999.9 hPa Calm   1.9 km/h 94 % 10.67 mm
07:56 22.4 °C 21.4 °C 999.9 hPa NW 1.3 km/h 3.7 km/h 94 % 10.92 mm
08:01 22.4 °C 21.4 °C 999.9 hPa NNW 1.1 km/h 3.7 km/h 94 % 10.92 mm
08:06 22.4 °C 21.4 °C 1000.2 hPa WSW 1 km/h 3.7 km/h 94 % 11.18 mm
08:11 22.3 °C 21.3 °C 1000.6 hPa Calm   1.9 km/h 94 % 11.43 mm
08:16 22.3 °C 21.3 °C 1000.2 hPa Calm   1.6 km/h 94 % 11.43 mm
08:21 22.3 °C 21.3 °C 1000.6 hPa WSW 2.9 km/h 5.6 km/h 94 % 11.43 mm
08:26 22.2 °C 21.2 °C 1000.6 hPa WNW 1 km/h 8 km/h 94 % 11.43 mm
08:31 22.2 °C 21.2 °C 1000.6 hPa NW 0.8 km/h 5.6 km/h 94 % 10.92 mm
08:36 22.2 °C 21.3 °C 1000.2 hPa NW 1.8 km/h 5.6 km/h 95 % 10.67 mm
08:41 22.2 °C 21.3 °C 1000.2 hPa NW 1.1 km/h 3.7 km/h 95 % 10.67 mm
08:46 22.1 °C 21.3 °C 1000.2 hPa NW 0.3 km/h 3.7 km/h 95 % 10.41 mm
08:51 22.1 °C 21.2 °C 1000.2 hPa NW 0.2 km/h 1.6 km/h 95 % 10.41 mm
08:56 22.1 °C 21.2 °C 1000.6 hPa NW 1.6 km/h 5.6 km/h 95 % 9.91 mm
09:01 22.1 °C 21.3 °C 1000.6 hPa WNW 0.8 km/h 3.7 km/h 95 % 9.91 mm
09:06 22.2 °C 21.3 °C 1000.9 hPa WSW 0.3 km/h 1.9 km/h 95 % 9.4 mm
09:11 22.2 °C 21.3 °C 1000.9 hPa Calm   5.6 km/h 95 % 8.89 mm
09:16 22.2 °C 21.4 °C 1000.6 hPa Calm     95 % 8.64 mm
09:21 22.2 °C 21.4 °C 1000.6 hPa Calm     95 % 8.13 mm
09:26 22.3 °C 21.6 °C 1000.6 hPa SW 1 km/h 4.8 km/h 96 % 7.62 mm
09:31 22.3 °C 21.7 °C 1000.6 hPa West 1.4 km/h 3.2 km/h 96 % 7.11 mm
09:36 22.4 °C 21.7 °C 1000.6 hPa West 2.4 km/h 5.6 km/h 96 % 6.6 mm
09:41 22.5 °C 21.8 °C 1000.9 hPa WNW 1.9 km/h 3.7 km/h 96 % 6.35 mm
09:47 22.7 °C 22 °C 1001.2 hPa SW 3.5 km/h 9.3 km/h 96 % 5.84 mm
09:52 22.9 °C 22.4 °C 1001.2 hPa WSW 3.9 km/h 9.7 km/h 97 % 5.33 mm
09:57 23.2 °C 22.7 °C 1001.2 hPa WSW 4.8 km/h 9.3 km/h 97 % 5.08 mm
10:02 23.3 °C 22.8 °C 1001.2 hPa WNW 6.3 km/h 13 km/h 97 % 4.32 mm
10:07 23.4 °C 22.8 °C 1001.2 hPa WSW 2.6 km/h 13 km/h 96 % 3.81 mm
10:12 23.7 °C 23.2 °C 1001.2 hPa West 1.8 km/h 5.6 km/h 97 % 3.05 mm
10:17 24.1 °C 23.6 °C 1001.6 hPa WNW 2.4 km/h 5.6 km/h 97 % 2.79 mm
10:22 24.4 °C 23.9 °C 1001.6 hPa WSW 4.5 km/h 7.4 km/h 97 % 2.29 mm
10:27 24.6 °C 23.9 °C 1001.6 hPa SW 4.2 km/h 9.3 km/h 96 % 1.78 mm
10:32 24.7 °C 23.9 °C 1001.6 hPa West 6.6 km/h 9.3 km/h 95 % 1.52 mm
10:37 25 °C 24.2 °C 1001.6 hPa SW 8.5 km/h 13 km/h 95 % 1.02 mm
10:42 25.3 °C 24.2 °C 1001.6 hPa WNW 1.6 km/h 9.3 km/h 94 % 0.76 mm
10:47 25.6 °C 24.4 °C 1001.6 hPa West 2.1 km/h 5.6 km/h 93 % 0.51 mm
10:52 26 °C 24.8 °C 1001.6 hPa SW 7.7 km/h 13 km/h 93 % 0.25 mm
10:57 26.4 °C 25 °C 1001.6 hPa SW 8.5 km/h 11.1 km/h 92 % 0 mm
11:02 26.7 °C 24.9 °C 1001.9 hPa SW 5 km/h 11.1 km/h 90 % 0 mm
11:07 26.9 °C 24.6 °C 1001.9 hPa WNW 9 km/h 14.8 km/h 87 % 0 mm
11:12 27.3 °C 25.3 °C 1001.9 hPa NNE 1.9 km/h 7.4 km/h 89 % 0 mm
11:17 27.5 °C 24.9 °C 1001.9 hPa West 6.3 km/h 11.1 km/h 86 % 0 mm
11:22 27.7 °C 25.2 °C 1001.9 hPa WSW 8.7 km/h 16.7 km/h 86 % 0 mm
11:27 27.9 °C 25.2 °C 1001.9 hPa SW 1.9 km/h 7.4 km/h 85 % 0 mm
11:32 28.2 °C 25.3 °C 1002.3 hPa WSW 7.1 km/h 7.4 km/h 84 % 0 mm
11:38 28.4 °C 25 °C 1002.3 hPa West 7.6 km/h 11.1 km/h 82 % 0 mm
11:43 28.6 °C 24.8 °C 1002.6 hPa NW 5 km/h 11.1 km/h 80 % 0 mm
11:48 28.7 °C 24.9 °C 1002.6 hPa WNW 10.5 km/h 11.3 km/h 80 % 0 mm
11:53 28.9 °C 25.1 °C 1002.3 hPa SW 11.6 km/h 19.3 km/h 80 % 0 mm
11:58 29 °C 24.6 °C 1002.6 hPa WNW 3.2 km/h 7.4 km/h 77 % 0 mm
12:03 29.2 °C 24.5 °C 1002.6 hPa SW 8.2 km/h 11.1 km/h 76 % 0 mm
12:08 29.3 °C 24.8 °C 1002.6 hPa WNW 8 km/h 13 km/h 77 % 0.25 mm
12:13 29.4 °C 24.6 °C 1002.9 hPa WNW 5.6 km/h 7.4 km/h 75 % 0.25 mm
12:18 29.6 °C 24.9 °C 1002.9 hPa SW 5.1 km/h 14.8 km/h 76 % 0.25 mm
12:23 29.7 °C 23.2 °C 1002.9 hPa West 7.1 km/h 14.8 km/h 68 % 0.25 mm
12:28 29.8 °C 23.8 °C 1002.9 hPa North 3.9 km/h 9.3 km/h 70 % 0.25 mm
12:33 29.9 °C 23.6 °C 1002.9 hPa WNW 8.7 km/h 14.5 km/h 69 % 0.25 mm
12:38 30 °C 22.2 °C 1003.3 hPa NW 8.9 km/h 14.8 km/h 63 % 0.25 mm
12:43 30.1 °C 21.4 °C 1003.3 hPa WSW 6.8 km/h 11.3 km/h 60 % 0.25 mm
12:48 30.1 °C 20.9 °C 1003.3 hPa WNW 8.7 km/h 18.5 km/h 58 % 0.25 mm
12:53 30.3 °C 20.5 °C 1003.3 hPa East 4.5 km/h 13 km/h 56 % 0.25 mm
12:59 30.4 °C 21.2 °C 1003.6 hPa WSW 10.3 km/h 16.7 km/h 58 % 0.25 mm
13:04 30.5 °C 21 °C 1003.6 hPa West 9.2 km/h 22.2 km/h 57 % 0.25 mm
13:09 30.6 °C 21.4 °C 1003.6 hPa WSW 4.8 km/h 12.9 km/h 58 % 0 mm
13:14 30.7 °C 19.7 °C 1003.6 hPa SW 14.2 km/h 16.7 km/h 52 % 0 mm
13:19 30.7 °C 19.4 °C 1003.9 hPa WNW 13.4 km/h 24.1 km/h 51 % 0 mm
13:24 30.7 °C 20.7 °C 1003.9 hPa WNW 6.1 km/h 14.8 km/h 55 % 0 mm
13:29 30.8 °C 20.7 °C 1003.9 hPa WSW 6 km/h 16.1 km/h 55 % 0 mm
13:34 30.8 °C 19.2 °C 1003.9 hPa North 11.1 km/h 18.5 km/h 50 % 0 mm
13:39 30.9 °C 19.6 °C 1003.9 hPa NE 7.1 km/h 24.1 km/h 51 % 0 mm
13:44 30.9 °C 19.3 °C 1004.3 hPa WSW 3.4 km/h 14.8 km/h 50 % 0 mm
13:49 31.1 °C 20.1 °C 1004.3 hPa WSW 8.7 km/h 17.7 km/h 52 % 0 mm
13:54 31.1 °C 18.4 °C 1004.3 hPa WSW 12.7 km/h 18.5 km/h 47 % 0 mm
13:59 31.1 °C 18.8 °C 1004.3 hPa West 5.6 km/h 18.5 km/h 48 % 0 mm
14:04 31.1 °C 19.1 °C 1004.3 hPa NW 7.7 km/h 14.8 km/h 49 % 0 mm
14:09 31.2 °C 19.2 °C 1004.3 hPa WNW 8.5 km/h 13 km/h 49 % 0 mm
14:14 31.3 °C 19.7 °C 1004.6 hPa WSW 7.7 km/h 11.3 km/h 50 % 0 mm
14:17 31.4 °C 19.7 °C 1004.6 hPa NW 6.9 km/h 19.3 km/h 50 % 0 mm
14:20 31.4 °C 19.4 °C 1004.6 hPa WSW 6.6 km/h 13 km/h 49 % 0 mm
14:25 31.4 °C 18.1 °C 1004.6 hPa SW 8.9 km/h 17.7 km/h 45 % 0 mm
14:30 31.4 °C 18.4 °C 1004.6 hPa WSW 8.5 km/h 14.8 km/h 46 % 0 mm
14:31 31.4 °C 18.4 °C 1004.6 hPa SW 8.5 km/h 14.8 km/h 46 % 0 mm
14:36 31.4 °C 18.8 °C 1004.6 hPa NW 9.5 km/h 22.2 km/h 47 % 0 mm
14:41 31.4 °C 18.4 °C 1004.6 hPa West 2.9 km/h 5.6 km/h 46 % 0 mm
14:46 31.3 °C 18 °C 1004.6 hPa West 11.9 km/h 24.1 km/h 45 % 0 mm
14:51 31.3 °C 18 °C 1004.6 hPa West 5.6 km/h 11.3 km/h 45 % 0 mm
14:56 31.3 °C 18.3 °C 1005 hPa WNW 5.1 km/h 11.1 km/h 46 % 0 mm
15:01 31.4 °C 18.7 °C 1004.6 hPa WNW 6 km/h 16.1 km/h 47 % 0 mm
15:06 31.4 °C 17.7 °C 1005 hPa WNW 8.2 km/h 16.1 km/h 44 % 0 mm
15:11 31.4 °C 17.3 °C 1005 hPa West 10.9 km/h 20.4 km/h 43 % 0 mm
15:16 31.4 °C 18 °C 1005 hPa SW 10.1 km/h 20.4 km/h 45 % 0 mm
15:21 31.2 °C 17.9 °C 1005.3 hPa NNW 10.6 km/h 18.5 km/h 45 % 0 mm
15:26 31.1 °C 17.4 °C 1005.3 hPa WSW 8.2 km/h 24.1 km/h 44 % 0 mm
15:31 31 °C 16.9 °C 1005.3 hPa SW 7.2 km/h 25.7 km/h 43 % 0 mm
15:36 30.9 °C 17.3 °C 1005.3 hPa NNE 9 km/h 13 km/h 44 % 0 mm
15:39 30.9 °C 16.6 °C 1005.3 hPa SW 12.1 km/h 18.5 km/h 42 % 0 mm
15:44 31 °C 17.3 °C 1005.3 hPa SW 7.2 km/h 12.9 km/h 44 % 0 mm
15:49 31.1 °C 17.7 °C 1005.3 hPa West 7.7 km/h 19.3 km/h 45 % 0 mm
15:54 31.1 °C 18.1 °C 1005.3 hPa WNW 3.2 km/h 13 km/h 46 % 0 mm
15:59 31.1 °C 16.7 °C 1005.6 hPa West 7.4 km/h 14.8 km/h 42 % 0 mm
16:00 31.1 °C 16.7 °C 1005.6 hPa West 10.8 km/h 14.8 km/h 42 % 0 mm
16:05 31.1 °C 17 °C 1005.6 hPa West 7.9 km/h 19.3 km/h 43 % 0 mm
16:10 31.1 °C 16.6 °C 1005.6 hPa WNW 10.8 km/h 20.4 km/h 42 % 0 mm
16:15 31 °C 16.9 °C 1005.6 hPa West 13.5 km/h 22.2 km/h 43 % 0 mm
16:20 30.9 °C 16.5 °C 1006 hPa North 4.5 km/h 11.1 km/h 42 % 0 mm
16:26 30.9 °C 16.8 °C 1006 hPa SW 4.8 km/h 9.7 km/h 43 % 0 mm
16:31 30.8 °C 16 °C 1006.3 hPa West 4.8 km/h 19.3 km/h 41 % 0 mm
16:36 30.6 °C 16.6 °C 1006.3 hPa West 9.7 km/h 14.5 km/h 43 % 0 mm
16:41 30.4 °C 16.8 °C 1006.3 hPa WNW 3.2 km/h 9.7 km/h 44 % 0 mm
16:46 30.3 °C 17.1 °C 1006.3 hPa WNW 4.8 km/h 14.5 km/h 45 % 0 mm
16:51 30 °C 16.4 °C 1006.3 hPa WNW 4.8 km/h 19.3 km/h 44 % 0 mm
16:56 29.8 °C 15.8 °C 1006.3 hPa WNW 8 km/h 24.1 km/h 43 % 0 mm
17:01 29.6 °C 16.8 °C 1006.7 hPa SW 4.2 km/h 7.4 km/h 46 % 0 mm
17:06 29.5 °C 16.3 °C 1006.7 hPa SW 9.2 km/h 16.7 km/h 45 % 0 mm
17:11 29.4 °C 16.2 °C 1006.7 hPa West 7.7 km/h 13 km/h 45 % 0 mm
17:16 29.3 °C 16.1 °C 1006.7 hPa WSW 7.9 km/h 17.7 km/h 45 % 0 mm
17:21 29.1 °C 15.9 °C 1006.7 hPa SW 9.3 km/h 18.5 km/h 45 % 0 mm
17:26 28.9 °C 16.4 °C 1007 hPa WSW 7.1 km/h 11.3 km/h 47 % 0 mm
17:31 28.6 °C 16.2 °C 1007 hPa WSW 1.8 km/h 13 km/h 47 % 0 mm
17:36 28.4 °C 16.4 °C 1007 hPa WNW 5.6 km/h 7.4 km/h 48 % 0 mm
17:41 28.3 °C 16.3 °C 1007 hPa West 1.1 km/h 5.6 km/h 48 % 0 mm
17:46 28.3 °C 16.9 °C 1007 hPa WNW 4.7 km/h 8 km/h 50 % 0 mm
17:51 28.2 °C 16.1 °C 1007 hPa WNW 2.4 km/h 5.6 km/h 48 % 0 mm
17:56 28.2 °C 16.1 °C 1007 hPa West 9.2 km/h 14.8 km/h 48 % 0 mm
18:01 28.2 °C 15.1 °C 1007 hPa WSW 7.6 km/h 13 km/h 45 % 0 mm
18:06 28.1 °C 15.7 °C 1007 hPa WNW 5.6 km/h 7.4 km/h 47 % 0 mm
18:11 28.1 °C 15.4 °C 1007 hPa WNW 4.2 km/h 5.6 km/h 46 % 0 mm
18:16 28.1 °C 15.4 °C 1007.3 hPa WNW 6.9 km/h 11.1 km/h 46 % 0 mm
18:21 28.1 °C 16.4 °C 1007 hPa West 1.8 km/h 5.6 km/h 49 % 0 mm
18:26 28.1 °C 16 °C 1007.3 hPa West 1.6 km/h 3.7 km/h 48 % 0 mm
18:31 28.1 °C 16 °C 1007.3 hPa WNW 3.7 km/h 11.3 km/h 48 % 0 mm
18:32 28.1 °C 16 °C 1007.3 hPa NW 5 km/h 11.1 km/h 48 % 0 mm
18:38 28.1 °C 16.3 °C 1007.3 hPa SW 4.8 km/h 9.7 km/h 49 % 0 mm
18:42 28 °C 15.6 °C 1007.3 hPa SW 0.3 km/h 5.6 km/h 47 % 0 mm
18:48 27.9 °C 15.9 °C 1007.3 hPa WNW 1.8 km/h 7.4 km/h 48 % 0 mm
18:53 27.9 °C 15.6 °C 1007.3 hPa SW 3.2 km/h 3.2 km/h 47 % 0 mm
18:58 27.8 °C 15.5 °C 1007.7 hPa WSW 6.1 km/h 11.3 km/h 47 % 0 mm
19:03 27.8 °C 15.4 °C 1007.7 hPa WSW 3.5 km/h 7.4 km/h 47 % 0 mm
19:08 27.7 °C 15.7 °C 1007.7 hPa SW 0.5 km/h 3.2 km/h 48 % 0 mm
19:13 27.7 °C 15.7 °C 1007.7 hPa WSW 2.9 km/h 5.6 km/h 48 % 0 mm
19:18 27.7 °C 16 °C 1007.7 hPa WNW 1.4 km/h 3.7 km/h 49 % 0 mm
19:23 27.6 °C 16.5 °C 1007.7 hPa West 2.4 km/h 5.6 km/h 51 % 0 mm
19:28 27.5 °C 16.8 °C 1007.7 hPa WNW 0.5 km/h 3.7 km/h 52 % 0 mm
19:33 27.4 °C 16.3 °C 1007.7 hPa WSW 3.1 km/h 5.6 km/h 51 % 0 mm
19:38 27.3 °C 16.9 °C 1007.7 hPa Calm   1.9 km/h 53 % 0 mm
19:43 27.2 °C 17.1 °C 1008 hPa Calm     54 % 0 mm
19:48 27.1 °C 17.3 °C 1008 hPa WSW 0.3 km/h 1.9 km/h 55 % 0 mm
19:53 26.9 °C 17.4 °C 1008 hPa Calm   1.9 km/h 56 % 0 mm
19:58 26.8 °C 17.6 °C 1008 hPa Calm     57 % 0 mm
20:03 26.6 °C 17.9 °C 1008 hPa Calm     59 % 0 mm
20:08 26.3 °C 18.2 °C 1008.4 hPa Calm     61 % 0 mm
20:13 26.1 °C 18.3 °C 1008.4 hPa Calm     62 % 0 mm
20:18 25.9 °C 17.6 °C 1008.4 hPa Calm     60 % 0 mm
20:24 25.7 °C 17.8 °C 1008.4 hPa Calm   1.9 km/h 62 % 0 mm
20:29 25.4 °C 18.1 °C 1008.4 hPa Calm     64 % 0 mm
20:34 25.2 °C 17.9 °C 1008.4 hPa Calm     64 % 0 mm
20:39 24.9 °C 17.9 °C 1008.4 hPa Calm     65 % 0 mm
20:44 24.8 °C 17.5 °C 1008.4 hPa Calm     64 % 0 mm
20:49 24.6 °C 17.3 °C 1008.4 hPa Calm   1.9 km/h 64 % 0 mm
20:54 24.3 °C 17.1 °C 1008.4 hPa Calm     64 % 0 mm
20:59 24.2 °C 16.9 °C 1008.4 hPa Calm     64 % 0 mm
21:04 23.9 °C 16.7 °C 1008.7 hPa Calm     64 % 0 mm
21:09 23.8 °C 16.8 °C 1008.7 hPa Calm     65 % 0 mm
21:14 23.6 °C 16.9 °C 1009 hPa Calm     66 % 0 mm
21:19 23.4 °C 16.7 °C 1009 hPa Calm     66 % 0 mm
21:24 23.3 °C 16.6 °C 1009 hPa Calm     66 % 0 mm
21:29 23.2 °C 16.5 °C 1009 hPa Calm     66 % 0 mm
21:34 23.1 °C 16.6 °C 1009.4 hPa Calm     67 % 0 mm
21:39 22.9 °C 16.7 °C 1009.4 hPa Calm     68 % 0 mm
21:44 22.8 °C 16.6 °C 1009.4 hPa Calm     68 % 0 mm
21:49 22.7 °C 16.5 °C 1009.4 hPa Calm     68 % 0 mm
21:54 22.7 °C 16.4 °C 1009.7 hPa NNE 0.2 km/h 1.9 km/h 68 % 0 mm
21:59 22.6 °C 16.1 °C 1009.7 hPa Calm     67 % 0 mm
22:04 22.4 °C 15.8 °C 1009.7 hPa Calm     66 % 0 mm
22:09 22.4 °C 15.7 °C 1009.7 hPa Calm     66 % 0 mm
22:14 22.4 °C 15.9 °C 1010 hPa Calm     67 % 0 mm
22:19 22.3 °C 16.1 °C 1010 hPa Calm   3.7 km/h 68 % 0 mm
22:24 22.3 °C 15.8 °C 1010 hPa Calm     67 % 0 mm
22:30 22.3 °C 16.1 °C 1010 hPa Calm   1.9 km/h 68 % 0 mm
22:35 22.3 °C 16.1 °C 1010 hPa Calm     68 % 0 mm
22:40 22.3 °C 16.1 °C 1010 hPa Calm   1.9 km/h 68 % 0 mm
22:45 22.3 °C 16.4 °C 1010 hPa WSW 0.3 km/h 1.9 km/h 69 % 0 mm
22:50 22.3 °C 16.4 °C 1010.4 hPa WSW 0.2 km/h 1.9 km/h 69 % 0 mm
22:55 22.4 °C 16.4 °C 1010 hPa WSW 1.1 km/h 3.7 km/h 69 % 0 mm
23:00 22.4 °C 16.5 °C 1010 hPa WSW 2.3 km/h 5.6 km/h 69 % 0 mm
23:05 22.4 °C 16.5 °C 1010 hPa WSW 0.5 km/h 1.9 km/h 69 % 0 mm
23:10 22.5 °C 16.5 °C 1010 hPa Calm     69 % 0 mm
23:15 22.6 °C 16.6 °C 1010 hPa Calm   1.9 km/h 69 % 0 mm
23:20 22.6 °C 16.6 °C 1010 hPa WSW 0.3 km/h 3.7 km/h 69 % 0 mm
23:25 22.6 °C 16.6 °C 1010.4 hPa WSW 1 km/h 3.7 km/h 69 % 0 mm
23:30 22.6 °C 16.6 °C 1010.4 hPa Calm   1.9 km/h 69 % 0 mm
23:36 22.6 °C 16.6 °C 1010.4 hPa Calm   3.2 km/h 69 % 0 mm
23:41 22.6 °C 16.6 °C 1010 hPa Calm   1.6 km/h 69 % 0 mm
23:42 22.6 °C 16.6 °C 1010 hPa Calm     69 % 0 mm
23:47 22.6 °C 16.8 °C 1010 hPa WSW 2.1 km/h 6.4 km/h 70 % 0 mm
23:52 22.6 °C 16.8 °C 1010.4 hPa WSW 3.9 km/h 8 km/h 70 % 0 mm
23:57 22.6 °C 16.8 °C 1010 hPa WSW 3.4 km/h 5.6 km/h 70 % 0 mm
Crab Meadow Weather
Compliments of Weather Underground - 3 mb

Script developed by  Jim McMurry - jmcmurry@mwt.net Adapted for the template by  Wim van der Kuil - Leuven-Template.eu

Extremes: Currently the driest state is Nevada with an annual rainfall of only nine inches.